Time;durP1;ratioP1;P1;durP2;ratioP2;P2;SDS_P1;SDS_P2;PMS_P1;PMS_P2;Temp;Humidity;BMP_temperature;BMP_pressure;BME280_temperature;BME280_humidity;BME280_pressure;Samples;Min_cycle;Max_cycle;Signal;HPM_P1;HPM_P2
2023/02/20 00:00:59;;;;;;;18.45;8.82;;;;;;;;;;769216;181;917886;-66
2023/02/20 00:03:25;;;;;;;14.87;9.70;;;;;;;;;;763645;182;920433;-65
2023/02/20 00:05:51;;;;;;;12.87;8.33;;;;;;;;;;767116;180;914620;-66
2023/02/20 00:08:17;;;;;;;22.37;10.80;;;;;;;;;;770140;179;919816;-68
2023/02/20 00:10:43;;;;;;;13.70;10.40;;;;;;;;;;772129;179;919995;-69
2023/02/20 00:13:09;;;;;;;18.27;11.03;;;;;;;;;;768630;180;920467;-68
2023/02/20 00:15:35;;;;;;;12.55;8.43;;;;;;;;;;769711;181;924286;-68
2023/02/20 00:18:00;;;;;;;9.20;6.57;;;;;;;;;;775099;181;815061;-69
2023/02/20 00:20:26;;;;;;;13.53;6.80;;;;;;;;;;774199;180;918577;-69
2023/02/20 00:22:52;;;;;;;10.57;6.67;;;;;;;;;;773626;181;818061;-66
2023/02/20 00:25:18;;;;;;;16.90;9.73;;;;;;;;;;773449;179;918308;-69
2023/02/20 00:27:44;;;;;;;11.03;7.03;;;;;;;;;;771724;181;919062;-69
2023/02/20 00:30:10;;;;;;;13.60;8.10;;;;;;;;;;772170;181;817189;-66
2023/02/20 00:32:36;;;;;;;12.30;7.40;;;;;;;;;;769422;182;817066;-66
2023/02/20 00:35:02;;;;;;;10.40;8.10;;;;;;;;;;774516;182;919413;-69
2023/02/20 00:37:28;;;;;;;9.20;5.80;;;;;;;;;;769314;181;918995;-65
2023/02/20 00:39:53;;;;;;;10.87;7.13;;;;;;;;;;770148;180;914599;-66
2023/02/20 00:42:19;;;;;;;12.37;8.07;;;;;;;;;;774104;181;915545;-70
2023/02/20 00:44:45;;;;;;;10.27;8.10;;;;;;;;;;769093;181;918661;-66
2023/02/20 00:47:11;;;;;;;12.70;7.20;;;;;;;;;;760253;182;917765;-69
2023/02/20 00:49:37;;;;;;;14.30;6.87;;;;;;;;;;768349;181;902697;-65
2023/02/20 00:52:03;;;;;;;14.03;8.37;;;;;;;;;;762850;181;919272;-70
2023/02/20 00:54:28;;;;;;;11.87;6.93;;;;;;;;;;768451;179;918940;-69
2023/02/20 00:56:54;;;;;;;18.55;8.27;;;;;;;;;;768127;182;919116;-70
2023/02/20 00:59:20;;;;;;;10.63;6.43;;;;;;;;;;761634;179;919147;-66
2023/02/20 01:01:46;;;;;;;7.35;5.68;;;;;;;;;;762158;180;919096;-66
2023/02/20 01:04:12;;;;;;;11.07;7.00;;;;;;;;;;767532;180;1022685;-69
2023/02/20 01:06:38;;;;;;;10.33;6.20;;;;;;;;;;774213;182;918841;-65
2023/02/20 01:09:03;;;;;;;10.83;5.80;;;;;;;;;;773453;181;918563;-66
2023/02/20 01:11:29;;;;;;;10.60;6.57;;;;;;;;;;773174;181;922581;-70
2023/02/20 01:13:55;;;;;;;9.90;6.60;;;;;;;;;;778991;181;817570;-66
2023/02/20 01:16:21;;;;;;;9.20;6.50;;;;;;;;;;776137;179;818631;-66
2023/02/20 01:18:47;;;;;;;10.83;7.43;;;;;;;;;;776892;179;1020339;-66
2023/02/20 01:21:13;;;;;;;12.20;6.20;;;;;;;;;;773205;178;918581;-70
2023/02/20 01:23:39;;;;;;;15.57;7.60;;;;;;;;;;766754;182;915659;-70
2023/02/20 01:26:05;;;;;;;11.73;5.37;;;;;;;;;;769867;181;919165;-66
2023/02/20 01:28:31;;;;;;;9.57;5.90;;;;;;;;;;774608;181;823553;-70
2023/02/20 01:30:57;;;;;;;9.53;5.33;;;;;;;;;;774529;179;917576;-66
2023/02/20 01:33:23;;;;;;;11.40;6.57;;;;;;;;;;776978;180;918327;-66
2023/02/20 01:35:48;;;;;;;9.47;5.80;;;;;;;;;;770970;181;916886;-66
2023/02/20 01:38:14;;;;;;;12.03;6.57;;;;;;;;;;768255;182;914186;-66
2023/02/20 01:40:40;;;;;;;10.57;6.20;;;;;;;;;;767714;180;917134;-70
2023/02/20 01:43:06;;;;;;;8.80;5.03;;;;;;;;;;768232;178;930647;-70
2023/02/20 01:45:33;;;;;;;12.50;6.33;;;;;;;;;;775894;180;915614;-70
2023/02/20 01:47:59;;;;;;;11.37;6.40;;;;;;;;;;767520;181;918546;-68
2023/02/20 01:50:25;;;;;;;10.03;6.20;;;;;;;;;;769610;182;919193;-73
2023/02/20 01:52:51;;;;;;;12.27;6.70;;;;;;;;;;765338;181;918486;-70
2023/02/20 01:55:17;;;;;;;11.10;5.50;;;;;;;;;;768489;180;919366;-66
2023/02/20 01:57:43;;;;;;;7.77;5.53;;;;;;;;;;763996;182;919985;-66
2023/02/20 02:00:10;;;;;;;7.25;5.30;;;;;;;;;;760108;184;919373;-67
2023/02/20 02:02:36;;;;;;;9.23;5.83;;;;;;;;;;773764;181;713616;-66
2023/02/20 02:05:01;;;;;;;9.00;6.03;;;;;;;;;;770494;181;919259;-72
2023/02/20 02:07:27;;;;;;;9.95;5.90;;;;;;;;;;770382;180;917390;-70
2023/02/20 02:09:54;;;;;;;14.03;6.03;;;;;;;;;;777106;181;918359;-70
2023/02/20 02:12:20;;;;;;;9.80;6.00;;;;;;;;;;770738;181;818325;-71
2023/02/20 02:14:46;;;;;;;9.27;6.30;;;;;;;;;;766606;182;918466;-70
2023/02/20 02:17:14;;;;;;;12.53;6.33;;;;;;;;;;773551;180;924144;-70
2023/02/20 02:19:55;;;;;;;11.10;5.97;;;;;;;;;;770492;179;873999;-71
2023/02/20 02:22:28;;;;;;;11.70;7.20;;;;;;;;;;757021;183;1020070;-70
2023/02/20 02:24:56;;;;;;;11.43;7.70;;;;;;;;;;760817;184;915849;-71
2023/02/20 02:27:22;;;;;;;8.53;6.03;;;;;;;;;;772663;179;916005;-70
2023/02/20 02:29:53;;;;;;;11.98;6.65;;;;;;;;;;776718;179;903924;-67
2023/02/20 02:32:24;;;;;;;11.43;5.67;;;;;;;;;;765372;182;897301;-66
2023/02/20 02:34:55;;;;;;;13.63;6.53;;;;;;;;;;763274;180;1037359;-71
2023/02/20 02:37:28;;;;;;;8.57;6.03;;;;;;;;;;773714;180;919041;-71
2023/02/20 02:39:56;;;;;;;11.30;6.60;;;;;;;;;;772224;181;935246;-67
2023/02/20 02:42:22;;;;;;;14.70;7.70;;;;;;;;;;776709;181;919539;-67
2023/02/20 02:44:53;;;;;;;20.70;6.30;;;;;;;;;;771374;181;918744;-66
2023/02/20 02:47:21;;;;;;;10.07;5.93;;;;;;;;;;768591;180;898639;-71
2023/02/20 02:49:48;;;;;;;14.87;7.53;;;;;;;;;;773734;180;918189;-70
2023/02/20 02:52:37;;;;;;;8.73;5.80;;;;;;;;;;776130;181;817440;-71
2023/02/20 02:54:39;;;;;;;11.53;6.47;;;;;;;;;;760782;181;916801;-66
2023/02/20 02:57:11;;;;;;;13.30;6.13;;;;;;;;;;767768;180;913352;-66
2023/02/20 02:59:37;;;;;;;10.80;5.20;;;;;;;;;;763300;183;918911;-71
2023/02/20 03:02:03;;;;;;;9.63;5.97;;;;;;;;;;770894;180;814627;-71
2023/02/20 03:04:29;;;;;;;10.70;5.97;;;;;;;;;;762768;182;919147;-67
2023/02/20 03:06:54;;;;;;;15.77;5.63;;;;;;;;;;765530;181;915295;-67
2023/02/20 03:09:20;;;;;;;17.20;6.60;;;;;;;;;;774991;181;920762;-71
2023/02/20 03:11:46;;;;;;;11.47;7.17;;;;;;;;;;767295;181;942468;-66
2023/02/20 03:16:50;;;;;;;10.07;5.80;;;;;;;;;;772257;181;918364;-70
2023/02/20 03:19:16;;;;;;;9.60;5.40;;;;;;;;;;775328;182;917628;-70
2023/02/20 03:21:42;;;;;;;10.87;5.70;;;;;;;;;;774985;181;811704;-71
2023/02/20 03:24:08;;;;;;;12.73;6.80;;;;;;;;;;775799;181;918005;-72
2023/02/20 03:26:33;;;;;;;8.50;5.67;;;;;;;;;;776790;181;869292;-70
2023/02/20 03:29:00;;;;;;;12.07;6.57;;;;;;;;;;769673;180;921053;-67
2023/02/20 03:31:35;;;;;;;13.07;6.83;;;;;;;;;;766532;179;817603;-66
2023/02/20 03:44:09;;;;;;;15.10;6.90;;;;;;;;;;779971;179;919189;-71
2023/02/20 03:46:35;;;;;;;10.73;5.27;;;;;;;;;;765795;181;917122;-67
2023/02/20 03:49:01;;;;;;;11.77;7.22;;;;;;;;;;765883;181;919949;-67
2023/02/20 03:51:27;;;;;;;11.30;6.17;;;;;;;;;;771131;181;919060;-71
2023/02/20 03:53:53;;;;;;;10.60;5.40;;;;;;;;;;775246;180;918576;-66
2023/02/20 03:56:20;;;;;;;15.57;6.90;;;;;;;;;;781309;180;925541;-71
2023/02/20 03:58:45;;;;;;;14.30;7.43;;;;;;;;;;773221;182;917256;-67
2023/02/20 04:01:11;;;;;;;19.00;6.87;;;;;;;;;;771169;181;918880;-67
2023/02/20 04:03:38;;;;;;;8.93;6.90;;;;;;;;;;768221;181;990623;-68
2023/02/20 04:06:03;;;;;;;9.10;5.97;;;;;;;;;;772660;181;917957;-65
2023/02/20 04:08:34;;;;;;;11.53;6.60;;;;;;;;;;769194;181;920408;-67
2023/02/20 04:10:56;;;;;;;9.90;6.17;;;;;;;;;;771228;181;916346;-71
2023/02/20 04:13:22;;;;;;;10.00;6.00;;;;;;;;;;777040;181;915520;-67
2023/02/20 04:15:48;;;;;;;12.60;7.30;;;;;;;;;;769994;181;913573;-71
2023/02/20 04:18:14;;;;;;;14.03;6.97;;;;;;;;;;767195;181;1124993;-68
2023/02/20 04:20:40;;;;;;;10.57;5.95;;;;;;;;;;775531;181;918727;-71
2023/02/20 04:23:06;;;;;;;18.80;6.70;;;;;;;;;;762529;184;819448;-67
2023/02/20 04:25:34;;;;;;;9.50;5.90;;;;;;;;;;772372;180;837294;-71
2023/02/20 04:27:58;;;;;;;15.73;7.40;;;;;;;;;;765915;181;918685;-71
2023/02/20 04:30:24;;;;;;;13.07;7.33;;;;;;;;;;770232;180;714644;-73
2023/02/20 04:32:50;;;;;;;9.83;6.63;;;;;;;;;;765304;182;947170;-67
2023/02/20 04:35:16;;;;;;;10.53;6.40;;;;;;;;;;766754;180;625250;-71
2023/02/20 04:37:42;;;;;;;9.77;6.47;;;;;;;;;;770398;183;917930;-67
2023/02/20 04:40:08;;;;;;;9.57;6.00;;;;;;;;;;773169;180;914375;-71
2023/02/20 04:42:34;;;;;;;11.90;6.63;;;;;;;;;;770850;179;635080;-72
2023/02/20 04:44:59;;;;;;;12.27;6.67;;;;;;;;;;776239;181;644313;-71
2023/02/20 04:47:25;;;;;;;8.83;5.90;;;;;;;;;;776293;181;630250;-67
2023/02/20 04:49:51;;;;;;;15.37;6.17;;;;;;;;;;772582;180;623926;-66
2023/02/20 04:52:17;;;;;;;14.00;6.37;;;;;;;;;;777160;180;625237;-71
2023/02/20 04:54:43;;;;;;;9.03;6.53;;;;;;;;;;781461;180;632960;-70
2023/02/20 04:57:09;;;;;;;10.53;6.77;;;;;;;;;;775609;181;631229;-67
2023/02/20 04:59:34;;;;;;;10.23;6.37;;;;;;;;;;771460;181;918796;-71
2023/02/20 05:02:00;;;;;;;7.77;6.10;;;;;;;;;;774732;181;919337;-71
2023/02/20 05:04:26;;;;;;;9.80;6.53;;;;;;;;;;767584;181;918696;-71
2023/02/20 05:06:52;;;;;;;9.50;6.70;;;;;;;;;;770624;179;909884;-69
2023/02/20 05:09:18;;;;;;;9.20;5.83;;;;;;;;;;773952;181;918822;-71
2023/02/20 05:11:44;;;;;;;8.70;5.17;;;;;;;;;;767937;181;1020746;-67
2023/02/20 05:14:10;;;;;;;12.37;6.17;;;;;;;;;;769822;181;919210;-67
2023/02/20 05:16:36;;;;;;;10.63;6.07;;;;;;;;;;768676;181;919350;-71
2023/02/20 05:19:02;;;;;;;8.67;5.53;;;;;;;;;;770515;179;906083;-72
2023/02/20 05:24:00;;;;;;;9.53;6.07;;;;;;;;;;769935;181;920633;-66
2023/02/20 05:26:25;;;;;;;9.43;6.77;;;;;;;;;;773654;181;817418;-67
2023/02/20 05:28:51;;;;;;;10.33;6.20;;;;;;;;;;769060;181;915996;-67
2023/02/20 05:31:17;;;;;;;9.77;6.50;;;;;;;;;;766909;181;921143;-67
2023/02/20 05:33:43;;;;;;;8.33;6.23;;;;;;;;;;772097;181;823200;-68
2023/02/20 05:36:09;;;;;;;12.77;7.97;;;;;;;;;;773753;181;922452;-71
2023/02/20 05:38:35;;;;;;;9.20;6.90;;;;;;;;;;773519;180;818036;-67
2023/02/20 05:41:01;;;;;;;12.30;6.10;;;;;;;;;;766997;181;1021385;-67
2023/02/20 05:43:26;;;;;;;12.05;6.95;;;;;;;;;;773230;179;815738;-67
2023/02/20 05:45:52;;;;;;;8.53;5.67;;;;;;;;;;763520;181;713857;-73
2023/02/20 05:48:18;;;;;;;7.83;5.40;;;;;;;;;;769482;181;914536;-71
2023/02/20 05:50:44;;;;;;;8.90;5.60;;;;;;;;;;778883;181;810585;-67
2023/02/20 05:53:10;;;;;;;8.00;4.50;;;;;;;;;;768986;179;911947;-68
2023/02/20 05:55:36;;;;;;;10.80;5.43;;;;;;;;;;770961;182;624147;-73
2023/02/20 05:58:01;;;;;;;9.13;5.40;;;;;;;;;;769404;182;674506;-71
2023/02/20 06:00:28;;;;;;;8.60;4.43;;;;;;;;;;765792;183;919226;-67
2023/02/20 06:02:53;;;;;;;9.27;5.50;;;;;;;;;;771606;179;621853;-67
2023/02/20 06:05:19;;;;;;;10.17;5.20;;;;;;;;;;775524;180;918114;-71
2023/02/20 06:07:46;;;;;;;7.13;4.30;;;;;;;;;;780352;181;917766;-72
2023/02/20 06:10:11;;;;;;;9.00;4.80;;;;;;;;;;772029;181;918097;-72
2023/02/20 06:12:37;;;;;;;9.60;5.43;;;;;;;;;;773027;181;918139;-71
2023/02/20 06:15:03;;;;;;;8.87;5.20;;;;;;;;;;766743;183;918670;-71
2023/02/20 06:17:29;;;;;;;7.70;4.60;;;;;;;;;;766647;182;818229;-73
2023/02/20 06:19:55;;;;;;;9.47;5.47;;;;;;;;;;774198;180;920319;-67
2023/02/20 06:22:21;;;;;;;10.25;6.10;;;;;;;;;;774293;181;817224;-68
2023/02/20 06:24:47;;;;;;;11.93;5.50;;;;;;;;;;783776;178;816028;-68
2023/02/20 06:27:13;;;;;;;9.13;5.30;;;;;;;;;;768396;181;806795;-66
2023/02/20 06:29:39;;;;;;;8.23;5.83;;;;;;;;;;773366;181;819833;-68
2023/02/20 06:32:04;;;;;;;7.17;4.80;;;;;;;;;;778612;180;617057;-73
2023/02/20 06:34:32;;;;;;;9.80;5.83;;;;;;;;;;776191;181;636022;-72
2023/02/20 06:36:56;;;;;;;11.03;5.60;;;;;;;;;;770946;181;810277;-73
2023/02/20 06:39:22;;;;;;;7.73;5.27;;;;;;;;;;771186;181;1017951;-73
2023/02/20 06:41:48;;;;;;;8.70;5.00;;;;;;;;;;770543;181;919304;-73
2023/02/20 06:44:14;;;;;;;9.77;4.50;;;;;;;;;;769980;180;1021736;-73
2023/02/20 06:46:40;;;;;;;8.27;4.97;;;;;;;;;;774505;179;919300;-68
2023/02/20 06:49:05;;;;;;;10.07;5.03;;;;;;;;;;768385;179;1023748;-68
2023/02/20 06:51:31;;;;;;;8.30;5.40;;;;;;;;;;768096;180;919270;-67
2023/02/20 06:53:57;;;;;;;8.80;5.40;;;;;;;;;;771575;181;933950;-72
2023/02/20 06:56:23;;;;;;;11.93;4.67;;;;;;;;;;775285;181;914645;-67
2023/02/20 06:58:49;;;;;;;12.90;4.53;;;;;;;;;;767265;181;918641;-67
2023/02/20 07:01:15;;;;;;;11.17;4.90;;;;;;;;;;763805;180;920743;-68
2023/02/20 07:03:40;;;;;;;7.73;4.77;;;;;;;;;;776910;181;920055;-72
2023/02/20 07:06:06;;;;;;;6.50;4.20;;;;;;;;;;768214;181;1022765;-73
2023/02/20 07:08:32;;;;;;;5.15;4.40;;;;;;;;;;772004;181;915284;-68
2023/02/20 07:10:58;;;;;;;8.50;4.87;;;;;;;;;;777125;181;918062;-67
2023/02/20 07:13:24;;;;;;;8.57;4.87;;;;;;;;;;771960;181;920360;-68
2023/02/20 07:15:50;;;;;;;11.37;4.80;;;;;;;;;;775284;180;919433;-67
2023/02/20 07:18:16;;;;;;;9.97;5.17;;;;;;;;;;772175;178;920653;-73
2023/02/20 07:20:41;;;;;;;5.70;4.10;;;;;;;;;;775246;180;907073;-73
2023/02/20 07:23:07;;;;;;;9.10;4.03;;;;;;;;;;766591;180;921017;-67
2023/02/20 07:25:33;;;;;;;8.50;4.05;;;;;;;;;;772064;181;919456;-68
2023/02/20 07:27:59;;;;;;;6.30;3.93;;;;;;;;;;781103;180;816866;-68
2023/02/20 07:30:25;;;;;;;7.93;4.40;;;;;;;;;;776725;180;918660;-68
2023/02/20 07:32:50;;;;;;;8.20;5.10;;;;;;;;;;776102;180;914672;-72
2023/02/20 07:35:16;;;;;;;9.33;5.33;;;;;;;;;;776966;181;1006637;-75
2023/02/20 07:37:42;;;;;;;8.33;5.23;;;;;;;;;;772747;181;904150;-75
2023/02/20 07:40:08;;;;;;;8.80;4.57;;;;;;;;;;768907;182;918690;-75
2023/02/20 07:42:34;;;;;;;10.30;4.83;;;;;;;;;;773519;181;816768;-69
2023/02/20 07:45:00;;;;;;;13.80;5.37;;;;;;;;;;768262;182;919567;-68
2023/02/20 07:47:26;;;;;;;9.10;5.53;;;;;;;;;;759155;181;919328;-67
2023/02/20 07:49:52;;;;;;;7.43;5.47;;;;;;;;;;771594;181;918745;-68
2023/02/20 07:52:18;;;;;;;8.47;4.43;;;;;;;;;;777739;181;916308;-76
2023/02/20 07:54:44;;;;;;;6.20;4.40;;;;;;;;;;772761;180;915827;-67
2023/02/20 07:57:09;;;;;;;13.00;4.50;;;;;;;;;;771333;179;919118;-67
2023/02/20 07:59:35;;;;;;;8.10;4.83;;;;;;;;;;773448;181;919760;-75
2023/02/20 08:02:01;;;;;;;11.63;5.10;;;;;;;;;;769523;181;919491;-73
2023/02/20 08:04:27;;;;;;;8.83;4.00;;;;;;;;;;762315;181;919735;-75
2023/02/20 08:06:53;;;;;;;10.17;5.13;;;;;;;;;;773383;182;860229;-67
2023/02/20 08:09:19;;;;;;;10.30;5.60;;;;;;;;;;770314;181;919018;-73
2023/02/20 08:11:44;;;;;;;9.60;5.50;;;;;;;;;;770253;181;918806;-74
2023/02/20 08:14:10;;;;;;;8.18;5.07;;;;;;;;;;763616;179;921684;-65
2023/02/20 08:16:36;;;;;;;6.73;4.83;;;;;;;;;;778329;181;787754;-73
2023/02/20 08:19:02;;;;;;;12.00;6.30;;;;;;;;;;770693;180;918185;-72
2023/02/20 08:21:28;;;;;;;7.13;5.20;;;;;;;;;;770724;180;918209;-73
2023/02/20 08:23:54;;;;;;;12.50;5.10;;;;;;;;;;779808;181;816559;-72
2023/02/20 08:26:19;;;;;;;8.53;4.50;;;;;;;;;;775865;179;816558;-73
2023/02/20 08:28:45;;;;;;;7.27;4.90;;;;;;;;;;774677;181;884503;-67
2023/02/20 08:31:11;;;;;;;8.47;5.17;;;;;;;;;;778454;180;923719;-72
2023/02/20 08:33:37;;;;;;;7.70;4.70;;;;;;;;;;770062;181;918493;-65
2023/02/20 08:36:03;;;;;;;9.20;4.50;;;;;;;;;;774689;180;918989;-66
2023/02/20 08:38:29;;;;;;;10.33;5.50;;;;;;;;;;772058;180;1021459;-66
2023/02/20 08:40:55;;;;;;;6.60;4.63;;;;;;;;;;758149;184;915336;-67
2023/02/20 08:43:21;;;;;;;10.77;5.40;;;;;;;;;;770171;181;903607;-73
2023/02/20 08:45:46;;;;;;;12.93;5.47;;;;;;;;;;768522;181;953336;-66
2023/02/20 08:48:12;;;;;;;7.78;5.45;;;;;;;;;;777716;181;916710;-73
2023/02/20 08:50:38;;;;;;;8.60;5.60;;;;;;;;;;771275;181;921738;-73
2023/02/20 08:53:04;;;;;;;8.83;5.80;;;;;;;;;;767583;181;919941;-73
2023/02/20 08:55:30;;;;;;;10.37;5.93;;;;;;;;;;774892;181;918918;-73
2023/02/20 08:57:56;;;;;;;11.90;7.70;;;;;;;;;;774536;181;822095;-73
2023/02/20 09:00:22;;;;;;;10.10;6.28;;;;;;;;;;769633;181;940474;-75
2023/02/20 09:02:48;;;;;;;13.00;6.87;;;;;;;;;;773554;181;919834;-72
2023/02/20 09:05:14;;;;;;;8.10;5.70;;;;;;;;;;761070;182;818277;-72
2023/02/20 09:07:40;;;;;;;10.53;6.57;;;;;;;;;;754901;182;916995;-65
2023/02/20 09:10:05;;;;;;;7.90;5.30;;;;;;;;;;761319;182;817661;-66
2023/02/20 09:12:31;;;;;;;8.83;6.47;;;;;;;;;;771153;181;919974;-73
2023/02/20 09:15:00;;;;;;;13.13;6.47;;;;;;;;;;770368;181;817222;-67
2023/02/20 09:17:26;;;;;;;10.20;6.50;;;;;;;;;;765741;181;922417;-66
2023/02/20 09:19:51;;;;;;;8.70;6.87;;;;;;;;;;774353;180;920906;-73
2023/02/20 09:22:20;;;;;;;10.43;6.50;;;;;;;;;;770618;180;919130;-65
2023/02/20 09:24:46;;;;;;;10.70;7.27;;;;;;;;;;767801;181;918332;-73
2023/02/20 09:27:12;;;;;;;10.10;6.50;;;;;;;;;;772126;181;817091;-66
2023/02/20 09:29:39;;;;;;;7.87;5.23;;;;;;;;;;774788;181;910316;-72
2023/02/20 09:32:04;;;;;;;8.70;6.17;;;;;;;;;;766420;182;915871;-72
2023/02/20 09:34:30;;;;;;;9.65;6.25;;;;;;;;;;762732;179;921487;-66
2023/02/20 09:36:56;;;;;;;10.20;7.10;;;;;;;;;;770628;181;919717;-72
2023/02/20 09:39:21;;;;;;;9.80;5.83;;;;;;;;;;774861;180;917190;-65
2023/02/20 09:41:53;;;;;;;10.27;7.17;;;;;;;;;;770627;181;897209;-72
2023/02/20 09:44:36;;;;;;;11.53;7.27;;;;;;;;;;768241;181;895332;-65
2023/02/20 09:47:02;;;;;;;8.10;6.20;;;;;;;;;;758515;182;1015321;-73
2023/02/20 09:49:29;;;;;;;20.93;7.30;;;;;;;;;;768760;181;894313;-72
2023/02/20 09:51:55;;;;;;;11.53;7.73;;;;;;;;;;769195;179;920140;-65
2023/02/20 09:54:21;;;;;;;9.70;6.57;;;;;;;;;;770405;181;919575;-72
2023/02/20 09:56:48;;;;;;;15.60;7.80;;;;;;;;;;774468;180;918120;-74
2023/02/20 09:59:14;;;;;;;9.40;6.57;;;;;;;;;;774088;181;816075;-73
2023/02/20 10:01:40;;;;;;;14.60;7.90;;;;;;;;;;769089;181;1020737;-65
2023/02/20 10:04:07;;;;;;;9.77;6.90;;;;;;;;;;769752;181;919122;-72
2023/02/20 10:06:32;;;;;;;10.80;6.10;;;;;;;;;;769702;179;920178;-65
2023/02/20 10:08:58;;;;;;;10.30;5.80;;;;;;;;;;771050;180;817298;-66
2023/02/20 10:11:39;;;;;;;8.02;5.43;;;;;;;;;;771932;180;920850;-66
2023/02/20 10:14:09;;;;;;;14.97;6.37;;;;;;;;;;772433;180;627160;-71
2023/02/20 10:16:38;;;;;;;9.20;6.83;;;;;;;;;;776164;181;918325;-71
2023/02/20 10:19:08;;;;;;;12.90;7.27;;;;;;;;;;769370;181;914899;-64
2023/02/20 10:21:36;;;;;;;10.23;7.13;;;;;;;;;;770474;180;865202;-72
2023/02/20 10:24:07;;;;;;;11.20;5.73;;;;;;;;;;768385;180;918621;-72
2023/02/20 10:26:33;;;;;;;9.83;7.20;;;;;;;;;;772908;180;919014;-64
2023/02/20 10:28:59;;;;;;;10.60;6.53;;;;;;;;;;770245;179;816877;-72
2023/02/20 10:31:29;;;;;;;12.50;7.67;;;;;;;;;;772093;181;919463;-64
2023/02/20 10:34:00;;;;;;;12.53;6.93;;;;;;;;;;769143;181;918023;-73
2023/02/20 10:36:36;;;;;;;11.07;6.43;;;;;;;;;;775332;180;937490;-72
2023/02/20 10:39:04;;;;;;;10.93;5.83;;;;;;;;;;766729;183;919704;-65
2023/02/20 10:41:30;;;;;;;14.30;6.73;;;;;;;;;;771697;181;913131;-64
2023/02/20 10:44:01;;;;;;;9.97;6.27;;;;;;;;;;768208;181;976997;-72
2023/02/20 10:46:29;;;;;;;11.37;6.97;;;;;;;;;;769009;180;918494;-66
2023/02/20 10:48:55;;;;;;;12.50;8.70;;;;;;;;;;764443;181;812686;-65
2023/02/20 10:51:21;;;;;;;11.98;8.80;;;;;;;;;;769531;179;916420;-72
2023/02/20 10:53:49;;;;;;;10.40;6.90;;;;;;;;;;770554;179;918500;-64
2023/02/20 10:56:17;;;;;;;11.07;7.00;;;;;;;;;;769893;180;918124;-71
2023/02/20 10:58:45;;;;;;;12.43;7.00;;;;;;;;;;770652;180;918057;-71
2023/02/20 11:01:11;;;;;;;11.73;7.23;;;;;;;;;;772752;181;918772;-65
2023/02/20 11:03:39;;;;;;;10.13;6.87;;;;;;;;;;771522;181;919222;-70
2023/02/20 11:06:06;;;;;;;15.17;8.03;;;;;;;;;;768338;180;919741;-71
2023/02/20 11:08:31;;;;;;;16.70;8.20;;;;;;;;;;771035;180;920826;-71
2023/02/20 11:10:56;;;;;;;12.50;6.53;;;;;;;;;;764813;181;914917;-65
2023/02/20 11:13:22;;;;;;;10.47;6.40;;;;;;;;;;769152;181;1014541;-73
2023/02/20 11:15:48;;;;;;;17.33;7.53;;;;;;;;;;773561;179;818545;-64
2023/02/20 11:18:16;;;;;;;10.43;6.97;;;;;;;;;;767352;181;915138;-71
2023/02/20 11:20:44;;;;;;;11.57;7.37;;;;;;;;;;772011;181;918488;-65
2023/02/20 11:23:09;;;;;;;12.63;7.00;;;;;;;;;;768423;183;817277;-72
2023/02/20 11:25:33;;;;;;;8.47;5.53;;;;;;;;;;773056;181;875530;-72
2023/02/20 11:27:59;;;;;;;10.30;6.17;;;;;;;;;;771151;181;813317;-65
2023/02/20 11:30:26;;;;;;;10.70;7.50;;;;;;;;;;774612;180;918306;-65
2023/02/20 11:32:52;;;;;;;15.63;7.07;;;;;;;;;;767386;181;918924;-65
2023/02/20 11:35:20;;;;;;;11.10;7.77;;;;;;;;;;772587;181;918623;-72
2023/02/20 11:37:49;;;;;;;12.07;7.17;;;;;;;;;;779783;180;811702;-72
2023/02/20 11:40:21;;;;;;;10.33;6.30;;;;;;;;;;771112;180;917278;-72
2023/02/20 11:42:48;;;;;;;12.57;7.20;;;;;;;;;;771002;179;907152;-72
2023/02/20 11:45:13;;;;;;;12.30;6.77;;;;;;;;;;767983;179;917501;-65
2023/02/20 11:47:38;;;;;;;7.93;6.10;;;;;;;;;;771846;180;918041;-65
2023/02/20 11:50:07;;;;;;;12.27;7.23;;;;;;;;;;771054;181;920917;-72
2023/02/20 11:52:33;;;;;;;10.40;6.50;;;;;;;;;;772070;181;1021743;-73
2023/02/20 11:55:05;;;;;;;10.82;7.30;;;;;;;;;;776496;181;920564;-72
2023/02/20 11:57:31;;;;;;;11.17;6.70;;;;;;;;;;768245;183;916702;-65
2023/02/20 12:00:14;;;;;;;12.18;8.23;;;;;;;;;;775349;179;919174;-66
2023/02/20 12:02:53;;;;;;;13.97;8.73;;;;;;;;;;776769;179;921679;-72
2023/02/20 12:05:19;;;;;;;9.03;6.33;;;;;;;;;;773698;180;919353;-64
2023/02/20 12:07:49;;;;;;;13.90;8.37;;;;;;;;;;773007;181;1020679;-71
2023/02/20 12:10:30;;;;;;;8.10;6.53;;;;;;;;;;782205;180;814935;-71
2023/02/20 12:12:56;;;;;;;13.73;7.23;;;;;;;;;;774201;181;818016;-72
2023/02/20 12:15:22;;;;;;;14.73;8.53;;;;;;;;;;765265;182;918683;-72
2023/02/20 12:17:54;;;;;;;15.57;7.53;;;;;;;;;;769681;180;915528;-73
2023/02/20 12:20:19;;;;;;;10.37;7.40;;;;;;;;;;767759;179;922238;-65
2023/02/20 12:22:50;;;;;;;10.40;7.80;;;;;;;;;;767634;180;917505;-72
2023/02/20 12:25:19;;;;;;;11.30;7.07;;;;;;;;;;762206;182;915157;-73
2023/02/20 12:27:51;;;;;;;9.03;6.80;;;;;;;;;;775140;179;918713;-73
2023/02/20 12:30:20;;;;;;;10.20;7.03;;;;;;;;;;769273;181;919530;-72
2023/02/20 12:32:47;;;;;;;9.80;6.37;;;;;;;;;;775614;181;917297;-65
2023/02/20 12:35:28;;;;;;;11.40;7.97;;;;;;;;;;769803;179;916002;-66
2023/02/20 12:37:57;;;;;;;12.80;8.13;;;;;;;;;;763209;182;917990;-66
2023/02/20 12:40:26;;;;;;;10.57;7.20;;;;;;;;;;762874;183;919226;-65
2023/02/20 12:43:12;;;;;;;13.03;6.47;;;;;;;;;;771839;180;917359;-73
2023/02/20 12:45:37;;;;;;;12.27;7.20;;;;;;;;;;767572;181;922730;-73
2023/02/20 12:48:14;;;;;;;13.57;7.60;;;;;;;;;;777495;180;919522;-74
2023/02/20 12:50:40;;;;;;;11.10;7.60;;;;;;;;;;769889;180;914817;-65
2023/02/20 12:53:10;;;;;;;9.60;6.57;;;;;;;;;;771393;180;920293;-72
2023/02/20 12:55:48;;;;;;;10.50;7.00;;;;;;;;;;763419;180;927368;-74
2023/02/20 12:58:31;;;;;;;10.60;7.27;;;;;;;;;;771149;181;920471;-73
2023/02/20 13:00:57;;;;;;;8.40;6.30;;;;;;;;;;773463;180;920213;-73
2023/02/20 13:03:24;;;;;;;12.03;7.57;;;;;;;;;;770350;180;918038;-74
2023/02/20 13:05:50;;;;;;;9.55;6.87;;;;;;;;;;765099;180;918932;-73
2023/02/20 13:08:18;;;;;;;10.43;8.23;;;;;;;;;;760058;184;918637;-66
2023/02/20 13:10:43;;;;;;;10.03;6.73;;;;;;;;;;768083;180;916829;-71
2023/02/20 13:13:09;;;;;;;8.67;6.60;;;;;;;;;;766505;179;915919;-72
2023/02/20 13:15:38;;;;;;;11.73;7.10;;;;;;;;;;774241;179;920465;-64
2023/02/20 13:18:07;;;;;;;12.37;7.50;;;;;;;;;;767487;182;920417;-72
2023/02/20 13:20:34;;;;;;;9.70;6.37;;;;;;;;;;773226;181;877128;-65
2023/02/20 13:22:59;;;;;;;10.57;6.90;;;;;;;;;;774725;180;815961;-65
2023/02/20 13:25:45;;;;;;;12.40;7.90;;;;;;;;;;772282;181;916994;-72
2023/02/20 13:28:26;;;;;;;10.53;7.90;;;;;;;;;;771635;178;919139;-66
2023/02/20 13:30:57;;;;;;;10.43;6.63;;;;;;;;;;769734;180;909550;-65
2023/02/20 13:33:25;;;;;;;8.73;6.47;;;;;;;;;;767267;181;919689;-66
2023/02/20 13:35:52;;;;;;;12.63;7.27;;;;;;;;;;777232;181;919585;-74
2023/02/20 13:38:18;;;;;;;8.30;6.67;;;;;;;;;;770176;181;919246;-65
2023/02/20 13:40:44;;;;;;;10.90;7.60;;;;;;;;;;771734;181;905843;-73
2023/02/20 13:43:22;;;;;;;10.02;7.10;;;;;;;;;;766131;181;1017160;-73
2023/02/20 13:45:48;;;;;;;12.23;6.40;;;;;;;;;;779906;179;914045;-65
2023/02/20 13:48:19;;;;;;;10.10;5.40;;;;;;;;;;768793;181;921139;-74
2023/02/20 13:50:45;;;;;;;9.67;6.37;;;;;;;;;;770037;180;868677;-66
2023/02/20 13:53:11;;;;;;;9.20;6.93;;;;;;;;;;770063;181;920452;-74
2023/02/20 13:55:37;;;;;;;9.00;5.80;;;;;;;;;;773394;181;918141;-74
2023/02/20 13:58:03;;;;;;;6.70;5.60;;;;;;;;;;769282;181;924685;-65
2023/02/20 14:00:33;;;;;;;10.33;6.93;;;;;;;;;;771301;181;917126;-67
2023/02/20 14:02:59;;;;;;;10.50;5.90;;;;;;;;;;771241;180;918427;-67
2023/02/20 14:05:28;;;;;;;9.33;6.30;;;;;;;;;;769301;181;919044;-74
2023/02/20 14:07:53;;;;;;;9.70;6.10;;;;;;;;;;772203;180;921123;-74
2023/02/20 14:10:22;;;;;;;10.68;5.70;;;;;;;;;;772041;180;1123404;-73
2023/02/20 14:12:48;;;;;;;11.33;6.37;;;;;;;;;;774918;180;915980;-66
2023/02/20 14:15:13;;;;;;;12.03;6.80;;;;;;;;;;767699;181;814980;-66
2023/02/20 14:17:39;;;;;;;9.38;6.30;;;;;;;;;;770339;181;919806;-74
2023/02/20 14:20:08;;;;;;;8.63;6.53;;;;;;;;;;772784;181;816316;-74
2023/02/20 14:22:32;;;;;;;8.70;6.50;;;;;;;;;;764995;181;919070;-74
2023/02/20 14:25:00;;;;;;;8.37;6.17;;;;;;;;;;773032;179;909516;-67
2023/02/20 14:27:26;;;;;;;8.00;5.18;;;;;;;;;;771364;180;914986;-72
2023/02/20 14:30:10;;;;;;;6.53;3.37;;;;;;;;;;775089;180;875323;-74
2023/02/20 14:32:36;;;;;;;11.87;4.77;;;;;;;;;;767492;180;892013;-65
2023/02/20 14:35:07;;;;;;;6.33;4.27;;;;;;;;;;768031;180;847276;-73